sensor_id;sensor_type;location;lat;lon;timestamp;pressure;altitude;pressure_sealevel;temperature;humidity
59110;BME280;44895;47.438;18.978;2022-10-28T00:02:03;101464.72;;;12.61;100.00
59110;BME280;44895;47.438;18.978;2022-10-28T00:05:07;101463.88;;;12.60;100.00
59110;BME280;44895;47.438;18.978;2022-10-28T00:08:11;101459.00;;;12.62;100.00
59110;BME280;44895;47.438;18.978;2022-10-28T00:11:23;101459.00;;;12.57;100.00
59110;BME280;44895;47.438;18.978;2022-10-28T00:14:27;101456.28;;;12.57;100.00
59110;BME280;44895;47.438;18.978;2022-10-28T00:17:31;101455.72;;;12.55;100.00
59110;BME280;44895;47.438;18.978;2022-10-28T00:20:35;101451.34;;;12.38;100.00
59110;BME280;44895;47.438;18.978;2022-10-28T00:23:39;101457.63;;;12.44;100.00
59110;BME280;44895;47.438;18.978;2022-10-28T00:26:43;101456.56;;;12.50;100.00
59110;BME280;44895;47.438;18.978;2022-10-28T00:29:48;101465.25;;;12.27;100.00
59110;BME280;44895;47.438;18.978;2022-10-28T00:32:52;101464.69;;;12.35;100.00
59110;BME280;44895;47.438;18.978;2022-10-28T00:35:55;101461.97;;;12.30;100.00
59110;BME280;44895;47.438;18.978;2022-10-28T00:39:00;101458.16;;;12.31;100.00
59110;BME280;44895;47.438;18.978;2022-10-28T00:42:05;101468.53;;;12.49;100.00
59110;BME280;44895;47.438;18.978;2022-10-28T00:45:09;101461.44;;;12.48;100.00
59110;BME280;44895;47.438;18.978;2022-10-28T00:48:13;101460.63;;;12.32;100.00
59110;BME280;44895;47.438;18.978;2022-10-28T00:51:18;101465.81;;;12.44;100.00
59110;BME280;44895;47.438;18.978;2022-10-28T00:54:23;101455.16;;;12.37;100.00
59110;BME280;44895;47.438;18.978;2022-10-28T00:57:31;101455.72;;;12.14;100.00
59110;BME280;44895;47.438;18.978;2022-10-28T01:00:35;101461.97;;;12.14;100.00
59110;BME280;44895;47.438;18.978;2022-10-28T01:03:39;101452.44;;;12.22;100.00
59110;BME280;44895;47.438;18.978;2022-10-28T01:06:43;101462.53;;;12.21;100.00
59110;BME280;44895;47.438;18.978;2022-10-28T01:09:48;101461.44;;;12.17;100.00
59110;BME280;44895;47.438;18.978;2022-10-28T01:16:08;101458.72;;;12.33;100.00
59110;BME280;44895;47.438;18.978;2022-10-28T01:23:19;101448.06;;;12.05;100.00
59110;BME280;44895;47.438;18.978;2022-10-28T01:33:00;101448.88;;;11.96;100.00
59110;BME280;44895;47.438;18.978;2022-10-28T01:36:22;101437.94;;;11.85;100.00
59110;BME280;44895;47.438;18.978;2022-10-28T01:39:38;101442.03;;;11.93;100.00
59110;BME280;44895;47.438;18.978;2022-10-28T01:42:53;101438.75;;;11.75;100.00
59110;BME280;44895;47.438;18.978;2022-10-28T01:46:06;101439.81;;;11.74;100.00
59110;BME280;44895;47.438;18.978;2022-10-28T01:52:23;101436.03;;;11.86;100.00
59110;BME280;44895;47.438;18.978;2022-10-28T01:55:29;101435.28;;;12.01;100.00
59110;BME280;44895;47.438;18.978;2022-10-28T01:58:36;101440.19;;;12.14;100.00
59110;BME280;44895;47.438;18.978;2022-10-28T02:01:42;101436.94;;;12.28;100.00
59110;BME280;44895;47.438;18.978;2022-10-28T02:04:46;101439.38;;;12.03;100.00
59110;BME280;44895;47.438;18.978;2022-10-28T02:07:55;101437.88;;;11.65;100.00
59110;BME280;44895;47.438;18.978;2022-10-28T02:18:22;101434.97;;;11.87;100.00
59110;BME280;44895;47.438;18.978;2022-10-28T02:24:47;101429.00;;;12.00;100.00
59110;BME280;44895;47.438;18.978;2022-10-28T02:27:55;101429.22;;;11.73;100.00
59110;BME280;44895;47.438;18.978;2022-10-28T02:31:05;101434.41;;;11.85;100.00
59110;BME280;44895;47.438;18.978;2022-10-28T02:34:22;101439.56;;;11.86;100.00
59110;BME280;44895;47.438;18.978;2022-10-28T02:37:29;101432.81;;;11.99;100.00
59110;BME280;44895;47.438;18.978;2022-10-28T02:40:35;101436.03;;;11.75;100.00
59110;BME280;44895;47.438;18.978;2022-10-28T02:43:40;101442.00;;;11.83;100.00
59110;BME280;44895;47.438;18.978;2022-10-28T02:46:47;101437.63;;;11.77;100.00
59110;BME280;44895;47.438;18.978;2022-10-28T02:49:56;101433.31;;;11.75;100.00
59110;BME280;44895;47.438;18.978;2022-10-28T02:53:09;101426.75;;;11.77;100.00
59110;BME280;44895;47.438;18.978;2022-10-28T02:56:15;101426.78;;;11.87;100.00
59110;BME280;44895;47.438;18.978;2022-10-28T02:59:23;101423.50;;;11.69;100.00
59110;BME280;44895;47.438;18.978;2022-10-28T03:02:27;101427.31;;;11.89;100.00
59110;BME280;44895;47.438;18.978;2022-10-28T03:05:31;101417.59;;;12.09;100.00
59110;BME280;44895;47.438;18.978;2022-10-28T03:08:34;101418.13;;;12.00;100.00
59110;BME280;44895;47.438;18.978;2022-10-28T03:11:38;101418.88;;;11.80;100.00
59110;BME280;44895;47.438;18.978;2022-10-28T03:14:42;101419.69;;;11.81;100.00
59110;BME280;44895;47.438;18.978;2022-10-28T03:17:46;101422.34;;;11.60;100.00
59110;BME280;44895;47.438;18.978;2022-10-28T03:20:50;101431.69;;;11.85;100.00
59110;BME280;44895;47.438;18.978;2022-10-28T03:23:54;101431.63;;;11.64;100.00
59110;BME280;44895;47.438;18.978;2022-10-28T03:26:57;101434.97;;;11.87;100.00
59110;BME280;44895;47.438;18.978;2022-10-28T03:30:01;101424.28;;;11.70;100.00
59110;BME280;44895;47.438;18.978;2022-10-28T03:33:05;101433.78;;;11.52;100.00
59110;BME280;44895;47.438;18.978;2022-10-28T03:36:08;101432.72;;;11.68;100.00
59110;BME280;44895;47.438;18.978;2022-10-28T03:39:12;101433.31;;;11.75;100.00
59110;BME280;44895;47.438;18.978;2022-10-28T03:42:16;101431.91;;;11.68;100.00
59110;BME280;44895;47.438;18.978;2022-10-28T03:45:20;101428.06;;;11.58;100.00
59110;BME280;44895;47.438;18.978;2022-10-28T03:48:24;101430.53;;;11.70;100.00
59110;BME280;44895;47.438;18.978;2022-10-28T03:51:27;101422.44;;;11.86;100.00
59110;BME280;44895;47.438;18.978;2022-10-28T03:54:31;101425.44;;;11.95;100.00
59110;BME280;44895;47.438;18.978;2022-10-28T03:57:35;101428.69;;;11.86;100.00
59110;BME280;44895;47.438;18.978;2022-10-28T04:00:39;101420.50;;;11.81;100.00
59110;BME280;44895;47.438;18.978;2022-10-28T04:03:43;101416.69;;;11.77;100.00
59110;BME280;44895;47.438;18.978;2022-10-28T04:06:46;101416.97;;;11.75;100.00
59110;BME280;44895;47.438;18.978;2022-10-28T04:09:50;101421.69;;;12.01;100.00
59110;BME280;44895;47.438;18.978;2022-10-28T04:12:59;101409.09;;;11.89;100.00
59110;BME280;44895;47.438;18.978;2022-10-28T04:16:03;101409.88;;;11.64;100.00
59110;BME280;44895;47.438;18.978;2022-10-28T04:19:07;101407.16;;;11.64;100.00
59110;BME280;44895;47.438;18.978;2022-10-28T04:22:11;101410.69;;;11.75;100.00
59110;BME280;44895;47.438;18.978;2022-10-28T04:25:15;101407.44;;;11.78;100.00
59110;BME280;44895;47.438;18.978;2022-10-28T04:28:19;101404.97;;;11.71;100.00
59110;BME280;44895;47.438;18.978;2022-10-28T04:31:23;101401.50;;;11.97;100.00
59110;BME280;44895;47.438;18.978;2022-10-28T04:34:27;101405.88;;;12.08;100.00
59110;BME280;44895;47.438;18.978;2022-10-28T04:37:30;101404.44;;;11.64;100.00
59110;BME280;44895;47.438;18.978;2022-10-28T04:40:34;101399.53;;;11.71;100.00
59110;BME280;44895;47.438;18.978;2022-10-28T04:43:38;101391.28;;;11.40;100.00
59110;BME280;44895;47.438;18.978;2022-10-28T04:46:42;101402.50;;;11.59;100.00
59110;BME280;44895;47.438;18.978;2022-10-28T04:49:45;101389.19;;;11.63;100.00
59110;BME280;44895;47.438;18.978;2022-10-28T04:52:49;101391.91;;;11.63;100.00
59110;BME280;44895;47.438;18.978;2022-10-28T04:55:57;101395.19;;;11.75;100.00
59110;BME280;44895;47.438;18.978;2022-10-28T04:59:00;101388.63;;;11.61;100.00
59110;BME280;44895;47.438;18.978;2022-10-28T05:02:04;101392.69;;;11.58;100.00
59110;BME280;44895;47.438;18.978;2022-10-28T05:05:08;101393.44;;;11.38;100.00
59110;BME280;44895;47.438;18.978;2022-10-28T05:08:12;101404.88;;;11.30;100.00
59110;BME280;44895;47.438;18.978;2022-10-28T05:11:16;101408.44;;;11.46;100.00
59110;BME280;44895;47.438;18.978;2022-10-28T05:14:20;101397.84;;;11.50;100.00
59110;BME280;44895;47.438;18.978;2022-10-28T05:17:24;101395.91;;;11.40;100.00
59110;BME280;44895;47.438;18.978;2022-10-28T05:20:28;101401.63;;;11.43;100.00
59110;BME280;44895;47.438;18.978;2022-10-28T05:23:32;101401.91;;;11.42;100.00
59110;BME280;44895;47.438;18.978;2022-10-28T05:26:36;101404.91;;;11.51;100.00
59110;BME280;44895;47.438;18.978;2022-10-28T05:29:40;101419.00;;;11.37;100.00
59110;BME280;44895;47.438;18.978;2022-10-28T05:32:44;101413.34;;;11.49;100.00
59110;BME280;44895;47.438;18.978;2022-10-28T05:35:48;101418.50;;;11.46;100.00
59110;BME280;44895;47.438;18.978;2022-10-28T05:38:51;101420.19;;;11.62;100.00
59110;BME280;44895;47.438;18.978;2022-10-28T05:41:55;101421.72;;;11.32;100.00
59110;BME280;44895;47.438;18.978;2022-10-28T05:44:59;101422.31;;;11.50;100.00
59110;BME280;44895;47.438;18.978;2022-10-28T05:48:03;101421.78;;;11.42;100.00
59110;BME280;44895;47.438;18.978;2022-10-28T05:51:06;101429.41;;;11.46;100.00
59110;BME280;44895;47.438;18.978;2022-10-28T05:54:10;101429.97;;;11.58;100.00
59110;BME280;44895;47.438;18.978;2022-10-28T05:57:14;101439.72;;;11.43;100.00
59110;BME280;44895;47.438;18.978;2022-10-28T06:00:20;101437.00;;;11.49;100.00
59110;BME280;44895;47.438;18.978;2022-10-28T06:03:25;101441.09;;;11.46;100.00
59110;BME280;44895;47.438;18.978;2022-10-28T06:06:29;101445.13;;;11.38;100.00
59110;BME280;44895;47.438;18.978;2022-10-28T06:09:33;101443.44;;;11.27;100.00
59110;BME280;44895;47.438;18.978;2022-10-28T06:12:37;101440.44;;;11.23;100.00
59110;BME280;44895;47.438;18.978;2022-10-28T06:15:41;101454.31;;;11.27;100.00
59110;BME280;44895;47.438;18.978;2022-10-28T06:18:44;101453.81;;;11.30;100.00
59110;BME280;44895;47.438;18.978;2022-10-28T06:21:48;101449.47;;;11.34;100.00
59110;BME280;44895;47.438;18.978;2022-10-28T06:24:52;101440.53;;;11.39;100.00
59110;BME280;44895;47.438;18.978;2022-10-28T06:27:57;101447.34;;;11.41;100.00
59110;BME280;44895;47.438;18.978;2022-10-28T06:31:06;101451.13;;;11.35;100.00
59110;BME280;44895;47.438;18.978;2022-10-28T06:34:11;101445.16;;;11.49;100.00
59110;BME280;44895;47.438;18.978;2022-10-28T06:37:15;101445.72;;;11.46;100.00
59110;BME280;44895;47.438;18.978;2022-10-28T06:40:18;101450.38;;;11.55;100.00
59110;BME280;44895;47.438;18.978;2022-10-28T06:43:22;101444.88;;;11.40;100.00
59110;BME280;44895;47.438;18.978;2022-10-28T06:46:27;101454.31;;;11.22;100.00
59110;BME280;44895;47.438;18.978;2022-10-28T06:49:31;101453.56;;;11.37;100.00
59110;BME280;44895;47.438;18.978;2022-10-28T06:52:34;101458.41;;;11.30;100.00
59110;BME280;44895;47.438;18.978;2022-10-28T06:55:38;101461.22;;;11.45;100.00
59110;BME280;44895;47.438;18.978;2022-10-28T06:58:42;101462.31;;;11.49;100.00
59110;BME280;44895;47.438;18.978;2022-10-28T07:01:46;101462.06;;;11.51;100.00
59110;BME280;44895;47.438;18.978;2022-10-28T07:04:50;101466.09;;;11.38;100.00
59110;BME280;44895;47.438;18.978;2022-10-28T07:07:53;101466.84;;;11.28;100.00
59110;BME280;44895;47.438;18.978;2022-10-28T07:10:59;101471.97;;;11.19;100.00
59110;BME280;44895;47.438;18.978;2022-10-28T07:14:02;101481.81;;;11.31;100.00
59110;BME280;44895;47.438;18.978;2022-10-28T07:17:06;101478.69;;;11.59;100.00
59110;BME280;44895;47.438;18.978;2022-10-28T07:20:10;101475.41;;;11.57;100.00
59110;BME280;44895;47.438;18.978;2022-10-28T07:23:14;101470.22;;;11.51;100.00
59110;BME280;44895;47.438;18.978;2022-10-28T07:26:18;101474.88;;;11.61;100.00
59110;BME280;44895;47.438;18.978;2022-10-28T07:29:25;101465.78;;;11.29;100.00
59110;BME280;44895;47.438;18.978;2022-10-28T07:32:31;101468.75;;;11.28;100.00
59110;BME280;44895;47.438;18.978;2022-10-28T07:35:35;101466.94;;;11.54;100.00
59110;BME280;44895;47.438;18.978;2022-10-28T07:38:39;101462.91;;;11.56;100.00
59110;BME280;44895;47.438;18.978;2022-10-28T07:41:43;101469.41;;;11.45;100.00
59110;BME280;44895;47.438;18.978;2022-10-28T07:44:47;101468.84;;;11.43;100.00
59110;BME280;44895;47.438;18.978;2022-10-28T07:47:51;101486.13;;;11.21;100.00
59110;BME280;44895;47.438;18.978;2022-10-28T07:50:55;101491.19;;;11.55;100.00
59110;BME280;44895;47.438;18.978;2022-10-28T07:53:59;101485.97;;;11.49;100.00
59110;BME280;44895;47.438;18.978;2022-10-28T07:57:02;101487.72;;;11.75;100.00
59110;BME280;44895;47.438;18.978;2022-10-28T08:00:07;101471.88;;;11.57;100.00
59110;BME280;44895;47.438;18.978;2022-10-28T08:03:16;101472.47;;;11.64;100.00
59110;BME280;44895;47.438;18.978;2022-10-28T08:06:20;101470.84;;;11.73;100.00
59110;BME280;44895;47.438;18.978;2022-10-28T08:09:24;101463.59;;;12.05;100.00
59110;BME280;44895;47.438;18.978;2022-10-28T08:12:28;101461.41;;;11.97;100.00
59110;BME280;44895;47.438;18.978;2022-10-28T08:15:33;101450.22;;;11.98;100.00
59110;BME280;44895;47.438;18.978;2022-10-28T08:18:37;101438.00;;;12.06;100.00
59110;BME280;44895;47.438;18.978;2022-10-28T08:21:41;101439.38;;;12.09;100.00
59110;BME280;44895;47.438;18.978;2022-10-28T08:24:44;101431.69;;;11.95;100.00
59110;BME280;44895;47.438;18.978;2022-10-28T08:27:49;101436.03;;;11.86;100.00
59110;BME280;44895;47.438;18.978;2022-10-28T08:30:52;101437.09;;;11.64;100.00
59110;BME280;44895;47.438;18.978;2022-10-28T08:33:56;101432.19;;;11.77;100.00
59110;BME280;44895;47.438;18.978;2022-10-28T08:36:59;101437.88;;;11.59;100.00
59110;BME280;44895;47.438;18.978;2022-10-28T08:40:04;101440.13;;;11.83;100.00
59110;BME280;44895;47.438;18.978;2022-10-28T08:50:02;101463.63;;;11.36;100.00
59110;BME280;44895;47.438;18.978;2022-10-28T08:53:20;101468.41;;;11.72;100.00
59110;BME280;44895;47.438;18.978;2022-10-28T08:56:33;101472.44;;;11.59;100.00
59110;BME280;44895;47.438;18.978;2022-10-28T08:59:39;101471.41;;;11.75;100.00
59110;BME280;44895;47.438;18.978;2022-10-28T09:06:01;101470.88;;;11.84;100.00
59110;BME280;44895;47.438;18.978;2022-10-28T09:09:11;101482.09;;;11.98;100.00
59110;BME280;44895;47.438;18.978;2022-10-28T09:18:56;101480.69;;;11.85;100.00
59110;BME280;44895;47.438;18.978;2022-10-28T09:28:40;101467.13;;;12.00;100.00
59110;BME280;44895;47.438;18.978;2022-10-28T09:31:49;101465.72;;;11.93;100.00
59110;BME280;44895;47.438;18.978;2022-10-28T09:34:58;101472.22;;;11.81;100.00
59110;BME280;44895;47.438;18.978;2022-10-28T09:38:34;101472.22;;;11.81;100.00
59110;BME280;44895;47.438;18.978;2022-10-28T09:41:40;101472.38;;;11.49;100.00
59110;BME280;44895;47.438;18.978;2022-10-28T09:44:54;101479.28;;;11.67;100.00
59110;BME280;44895;47.438;18.978;2022-10-28T09:48:09;101479.81;;;11.74;100.00
59110;BME280;44895;47.438;18.978;2022-10-28T09:51:32;101464.03;;;11.71;100.00
59110;BME280;44895;47.438;18.978;2022-10-28T09:54:41;101459.69;;;11.85;100.00
59110;BME280;44895;47.438;18.978;2022-10-28T09:57:46;101473.81;;;11.67;100.00
59110;BME280;44895;47.438;18.978;2022-10-28T10:00:50;101469.47;;;11.71;100.00
59110;BME280;44895;47.438;18.978;2022-10-28T10:03:55;101469.81;;;11.95;100.00
59110;BME280;44895;47.438;18.978;2022-10-28T10:07:07;101466.34;;;12.15;100.00
59110;BME280;44895;47.438;18.978;2022-10-28T10:10:22;101459.72;;;11.90;100.00
59110;BME280;44895;47.438;18.978;2022-10-28T10:13:35;101457.78;;;11.75;100.00
59110;BME280;44895;47.438;18.978;2022-10-28T10:16:46;101451.25;;;11.82;100.00
59110;BME280;44895;47.438;18.978;2022-10-28T10:20:08;101459.47;;;11.92;100.00
59110;BME280;44895;47.438;18.978;2022-10-28T10:23:35;101460.59;;;12.01;100.00
59110;BME280;44895;47.438;18.978;2022-10-28T10:26:39;101474.69;;;11.88;100.00
59110;BME280;44895;47.438;18.978;2022-10-28T10:29:44;101475.00;;;12.02;100.00
59110;BME280;44895;47.438;18.978;2022-10-28T10:32:50;101472.56;;;12.00;100.00
59110;BME280;44895;47.438;18.978;2022-10-28T10:36:17;101463.03;;;12.03;100.00
59110;BME280;44895;47.438;18.978;2022-10-28T10:39:27;101457.28;;;11.94;100.00
59110;BME280;44895;47.438;18.978;2022-10-28T10:42:34;101454.59;;;11.99;100.00
59110;BME280;44895;47.438;18.978;2022-10-28T10:45:37;101451.34;;;12.07;100.00
59110;BME280;44895;47.438;18.978;2022-10-28T10:48:42;101456.25;;;12.21;100.00
59110;BME280;44895;47.438;18.978;2022-10-28T10:51:57;101457.06;;;12.06;100.00
59110;BME280;44895;47.438;18.978;2022-10-28T10:55:05;101445.31;;;11.90;100.00
59110;BME280;44895;47.438;18.978;2022-10-28T10:58:19;101447.00;;;12.27;100.00
59110;BME280;44895;47.438;18.978;2022-10-28T11:01:26;101443.47;;;12.11;100.00
59110;BME280;44895;47.438;18.978;2022-10-28T11:04:31;101448.06;;;12.00;100.00
59110;BME280;44895;47.438;18.978;2022-10-28T11:07:44;101447.00;;;12.06;100.00
59110;BME280;44895;47.438;18.978;2022-10-28T11:11:02;101448.28;;;11.88;100.00
59110;BME280;44895;47.438;18.978;2022-10-28T11:17:21;101447.75;;;11.91;100.00
59110;BME280;44895;47.438;18.978;2022-10-28T11:31:11;101443.94;;;11.93;100.00
59110;BME280;44895;47.438;18.978;2022-10-28T11:34:26;101452.91;;;11.93;100.00
59110;BME280;44895;47.438;18.978;2022-10-28T11:41:23;101440.41;;;11.92;100.00
59110;BME280;44895;47.438;18.978;2022-10-28T11:54:36;101421.91;;;11.99;100.00
59110;BME280;44895;47.438;18.978;2022-10-28T12:08:48;101405.06;;;12.23;100.00
59110;BME280;44895;47.438;18.978;2022-10-28T12:12:07;101406.13;;;12.27;100.00
59110;BME280;44895;47.438;18.978;2022-10-28T12:18:56;101398.25;;;12.20;100.00
59110;BME280;44895;47.438;18.978;2022-10-28T12:22:16;101388.44;;;12.19;100.00
59110;BME280;44895;47.438;18.978;2022-10-28T12:25:32;101395.75;;;11.88;100.00
59110;BME280;44895;47.438;18.978;2022-10-28T12:28:50;101402.81;;;11.89;100.00
59110;BME280;44895;47.438;18.978;2022-10-28T12:32:00;101394.44;;;12.16;100.00
59110;BME280;44895;47.438;18.978;2022-10-28T12:35:24;101387.06;;;12.17;100.00
59110;BME280;44895;47.438;18.978;2022-10-28T12:44:56;101373.72;;;12.41;100.00
59110;BME280;44895;47.438;18.978;2022-10-28T12:48:28;101370.47;;;12.39;100.00
59110;BME280;44895;47.438;18.978;2022-10-28T12:51:36;101370.72;;;12.22;100.00
59110;BME280;44895;47.438;18.978;2022-10-28T12:54:57;101374.28;;;12.33;100.00
59110;BME280;44895;47.438;18.978;2022-10-28T12:58:33;101371.28;;;12.29;100.00
59110;BME280;44895;47.438;18.978;2022-10-28T13:01:38;101370.75;;;12.06;100.00
59110;BME280;44895;47.438;18.978;2022-10-28T13:04:42;101376.16;;;12.37;100.00
59110;BME280;44895;47.438;18.978;2022-10-28T13:18:13;101368.00;;;12.43;100.00
59110;BME280;44895;47.438;18.978;2022-10-28T13:21:34;101350.84;;;12.32;100.00
59110;BME280;44895;47.438;18.978;2022-10-28T13:24:54;101365.53;;;12.36;100.00
59110;BME280;44895;47.438;18.978;2022-10-28T13:28:01;101365.28;;;12.27;100.00
59110;BME280;44895;47.438;18.978;2022-10-28T13:31:06;101363.38;;;12.38;100.00
59110;BME280;44895;47.438;18.978;2022-10-28T13:34:12;101365.00;;;12.49;100.00
59110;BME280;44895;47.438;18.978;2022-10-28T13:37:19;101365.28;;;12.32;100.00
59110;BME280;44895;47.438;18.978;2022-10-28T13:47:03;101368.28;;;12.20;100.00
59110;BME280;44895;47.438;18.978;2022-10-28T13:50:08;101370.75;;;12.17;100.00
59110;BME280;44895;47.438;18.978;2022-10-28T13:56:45;101367.22;;;12.16;100.00
59110;BME280;44895;47.438;18.978;2022-10-28T14:00:33;101360.69;;;12.17;100.00
59110;BME280;44895;47.438;18.978;2022-10-28T14:03:19;101358.78;;;12.07;100.00
59110;BME280;44895;47.438;18.978;2022-10-28T14:06:30;101363.66;;;12.16;100.00
59110;BME280;44895;47.438;18.978;2022-10-28T14:09:37;101365.84;;;12.19;100.00
59110;BME280;44895;47.438;18.978;2022-10-28T14:12:46;101383.28;;;12.23;100.00
59110;BME280;44895;47.438;18.978;2022-10-28T14:19:20;101372.09;;;12.45;100.00
59110;BME280;44895;47.438;18.978;2022-10-28T14:22:26;101373.47;;;12.43;100.00
59110;BME280;44895;47.438;18.978;2022-10-28T14:31:47;101367.75;;;12.34;100.00
59110;BME280;44895;47.438;18.978;2022-10-28T14:34:51;101359.81;;;12.32;100.00
59110;BME280;44895;47.438;18.978;2022-10-28T14:38:26;101362.28;;;12.18;100.00
59110;BME280;44895;47.438;18.978;2022-10-28T14:48:40;101369.13;;;12.31;100.00
59110;BME280;44895;47.438;18.978;2022-10-28T14:51:48;101362.84;;;12.10;100.00
59110;BME280;44895;47.438;18.978;2022-10-28T14:54:54;101359.31;;;12.20;100.00
59110;BME280;44895;47.438;18.978;2022-10-28T14:58:19;101358.75;;;12.13;100.00
59110;BME280;44895;47.438;18.978;2022-10-28T15:01:25;101357.13;;;12.06;100.00
59110;BME280;44895;47.438;18.978;2022-10-28T15:04:30;101349.22;;;12.10;100.00
59110;BME280;44895;47.438;18.978;2022-10-28T15:07:34;101355.75;;;12.09;100.00
59110;BME280;44895;47.438;18.978;2022-10-28T15:10:37;101359.84;;;12.27;100.00
59110;BME280;44895;47.438;18.978;2022-10-28T15:13:41;101352.22;;;12.14;100.00
59110;BME280;44895;47.438;18.978;2022-10-28T15:16:47;101350.03;;;12.05;100.00
59110;BME280;44895;47.438;18.978;2022-10-28T15:19:53;101347.31;;;12.21;100.00
59110;BME280;44895;47.438;18.978;2022-10-28T15:23:17;101335.63;;;12.05;100.00
59110;BME280;44895;47.438;18.978;2022-10-28T15:26:21;101343.78;;;12.20;100.00
59110;BME280;44895;47.438;18.978;2022-10-28T15:29:25;101337.50;;;12.10;100.00
59110;BME280;44895;47.438;18.978;2022-10-28T15:32:33;101342.41;;;12.28;100.00
59110;BME280;44895;47.438;18.978;2022-10-28T15:35:37;101340.50;;;12.23;100.00
59110;BME280;44895;47.438;18.978;2022-10-28T15:38:42;101333.44;;;12.02;100.00
59110;BME280;44895;47.438;18.978;2022-10-28T15:41:46;101340.25;;;11.99;100.00
59110;BME280;44895;47.438;18.978;2022-10-28T15:44:56;101334.53;;;12.06;100.00
59110;BME280;44895;47.438;18.978;2022-10-28T15:48:07;101339.16;;;12.11;100.00
59110;BME280;44895;47.438;18.978;2022-10-28T15:51:17;101336.16;;;12.07;100.00
59110;BME280;44895;47.438;18.978;2022-10-28T15:54:22;101333.72;;;12.05;100.00
59110;BME280;44895;47.438;18.978;2022-10-28T15:57:28;101332.63;;;12.06;100.00
59110;BME280;44895;47.438;18.978;2022-10-28T16:00:32;101328.53;;;12.19;100.00
59110;BME280;44895;47.438;18.978;2022-10-28T16:06:44;101341.06;;;12.05;100.00
59110;BME280;44895;47.438;18.978;2022-10-28T16:09:48;101340.22;;;12.10;100.00
59110;BME280;44895;47.438;18.978;2022-10-28T16:12:53;101335.91;;;12.14;100.00
59110;BME280;44895;47.438;18.978;2022-10-28T16:16:23;101335.34;;;12.06;100.00
59110;BME280;44895;47.438;18.978;2022-10-28T16:19:34;101330.97;;;12.11;100.00
59110;BME280;44895;47.438;18.978;2022-10-28T16:22:39;101338.88;;;12.12;100.00
59110;BME280;44895;47.438;18.978;2022-10-28T16:25:43;101333.44;;;12.07;100.00
59110;BME280;44895;47.438;18.978;2022-10-28T16:28:47;101330.16;;;12.20;100.00
59110;BME280;44895;47.438;18.978;2022-10-28T16:31:51;101326.88;;;12.18;100.00
59110;BME280;44895;47.438;18.978;2022-10-28T16:34:56;101332.34;;;12.08;100.00
59110;BME280;44895;47.438;18.978;2022-10-28T16:38:02;101332.63;;;12.06;100.00
59110;BME280;44895;47.438;18.978;2022-10-28T16:41:13;101340.78;;;12.17;100.00
59110;BME280;44895;47.438;18.978;2022-10-28T16:44:17;101336.41;;;12.16;100.00
59110;BME280;44895;47.438;18.978;2022-10-28T16:47:23;101333.16;;;12.19;100.00
59110;BME280;44895;47.438;18.978;2022-10-28T16:50:29;101338.31;;;12.31;100.00
59110;BME280;44895;47.438;18.978;2022-10-28T16:53:33;101341.56;;;12.43;100.00
59110;BME280;44895;47.438;18.978;2022-10-28T16:56:37;101341.34;;;12.24;100.00
59110;BME280;44895;47.438;18.978;2022-10-28T16:59:41;101345.97;;;12.29;100.00
59110;BME280;44895;47.438;18.978;2022-10-28T17:02:45;101335.88;;;12.29;100.00
59110;BME280;44895;47.438;18.978;2022-10-28T17:05:53;101339.97;;;12.21;100.00
59110;BME280;44895;47.438;18.978;2022-10-28T17:08:57;101342.09;;;12.40;100.00
59110;BME280;44895;47.438;18.978;2022-10-28T17:12:00;101344.56;;;12.26;100.00
59110;BME280;44895;47.438;18.978;2022-10-28T17:15:05;101344.06;;;12.19;100.00
59110;BME280;44895;47.438;18.978;2022-10-28T17:18:10;101332.06;;;12.35;100.00
59110;BME280;44895;47.438;18.978;2022-10-28T17:21:14;101334.22;;;12.33;100.00
59110;BME280;44895;47.438;18.978;2022-10-28T17:24:18;101336.16;;;12.22;100.00
59110;BME280;44895;47.438;18.978;2022-10-28T17:27:24;101342.97;;;12.30;100.00
59110;BME280;44895;47.438;18.978;2022-10-28T17:30:29;101350.31;;;12.24;100.00
59110;BME280;44895;47.438;18.978;2022-10-28T17:33:33;101344.06;;;12.24;100.00
59110;BME280;44895;47.438;18.978;2022-10-28T17:36:37;101338.34;;;12.20;100.00
59110;BME280;44895;47.438;18.978;2022-10-28T17:39:40;101343.50;;;12.22;100.00
59110;BME280;44895;47.438;18.978;2022-10-28T17:42:45;101350.84;;;12.37;100.00
59110;BME280;44895;47.438;18.978;2022-10-28T17:45:49;101352.22;;;12.29;100.00
59110;BME280;44895;47.438;18.978;2022-10-28T17:48:53;101355.47;;;12.21;100.00
59110;BME280;44895;47.438;18.978;2022-10-28T17:51:57;101349.75;;;12.43;100.00
59110;BME280;44895;47.438;18.978;2022-10-28T17:55:01;101343.22;;;12.44;100.00
59110;BME280;44895;47.438;18.978;2022-10-28T17:58:05;101338.28;;;12.46;100.00
59110;BME280;44895;47.438;18.978;2022-10-28T18:01:09;101347.31;;;12.42;100.00
59110;BME280;44895;47.438;18.978;2022-10-28T18:04:13;101338.59;;;12.34;100.00
59110;BME280;44895;47.438;18.978;2022-10-28T18:07:17;101345.94;;;12.34;100.00
59110;BME280;44895;47.438;18.978;2022-10-28T18:10:21;101337.78;;;12.23;100.00
59110;BME280;44895;47.438;18.978;2022-10-28T18:13:29;101330.72;;;12.17;100.00